< < Back
Terminal Aerodrome Forecast


Current Version              Previous Versions:   1  2  3  4  5  6  7  8  9  

Terminal Aerodrome Forecast

075
FTUS42 KTAE 230500 RRA
TAFVLD
TAF
KVLD 230545Z 2306/2406 00000KT P6SM SKC
     FM231500 06007KT P6SM SKC=



Latest METAR

891
SAUS70 KWBC 231900
MTRVLD
METAR KVLD 231853Z 02004KT 10SM CLR 24/03 A3001 RMK AO2 SLP171
T02390033


USA.gov is the U.S. government's official web portal to all federal, state and local government web resources and services.